sensor_id;sensor_type;location;lat;lon;timestamp;noise_LAeq;noise_LA_min;noise_LA_max;noise_LA01;noise_LA95
74531;Laerm;63010;55.668;37.878;2022-12-26T00:01:35;55.72;49.63;65.94;;
74531;Laerm;63010;55.668;37.878;2022-12-26T00:04:00;55.25;45.44;65.57;;
74531;Laerm;63010;55.668;37.878;2022-12-26T00:06:28;56.05;48.07;68.44;;
74531;Laerm;63010;55.668;37.878;2022-12-26T00:08:55;55.17;47.71;63.07;;
74531;Laerm;63010;55.668;37.878;2022-12-26T00:11:22;54.90;46.59;65.13;;
74531;Laerm;63010;55.668;37.878;2022-12-26T00:13:53;55.16;47.74;70.56;;
74531;Laerm;63010;55.668;37.878;2022-12-26T00:16:20;53.72;46.33;62.96;;
74531;Laerm;63010;55.668;37.878;2022-12-26T00:18:46;55.24;47.06;64.13;;
74531;Laerm;63010;55.668;37.878;2022-12-26T00:21:13;56.67;48.88;70.04;;
74531;Laerm;63010;55.668;37.878;2022-12-26T00:23:40;52.92;44.38;70.71;;
74531;Laerm;63010;55.668;37.878;2022-12-26T00:26:11;55.46;46.49;66.53;;
74531;Laerm;63010;55.668;37.878;2022-12-26T00:28:37;52.77;46.87;58.18;;
74531;Laerm;63010;55.668;37.878;2022-12-26T00:31:08;56.24;46.61;65.64;;
74531;Laerm;63010;55.668;37.878;2022-12-26T00:33:34;56.10;47.00;67.39;;
74531;Laerm;63010;55.668;37.878;2022-12-26T00:36:02;55.74;46.83;64.53;;
74531;Laerm;63010;55.668;37.878;2022-12-26T00:38:28;55.41;44.92;65.00;;
74531;Laerm;63010;55.668;37.878;2022-12-26T00:40:54;53.67;45.54;62.79;;
74531;Laerm;63010;55.668;37.878;2022-12-26T00:43:20;54.90;46.80;64.30;;
74531;Laerm;63010;55.668;37.878;2022-12-26T00:45:47;55.19;45.95;65.95;;
74531;Laerm;63010;55.668;37.878;2022-12-26T00:48:13;55.88;45.57;66.83;;
74531;Laerm;63010;55.668;37.878;2022-12-26T00:50:38;52.92;45.07;59.48;;
74531;Laerm;63010;55.668;37.878;2022-12-26T00:53:04;55.23;47.08;66.56;;
74531;Laerm;63010;55.668;37.878;2022-12-26T00:55:29;52.95;45.61;60.09;;
74531;Laerm;63010;55.668;37.878;2022-12-26T00:57:55;55.37;47.34;62.44;;
74531;Laerm;63010;55.668;37.878;2022-12-26T01:00:20;53.12;46.87;60.18;;
74531;Laerm;63010;55.668;37.878;2022-12-26T01:02:46;56.19;44.46;66.42;;
74531;Laerm;63010;55.668;37.878;2022-12-26T01:05:12;56.41;49.69;68.29;;
74531;Laerm;63010;55.668;37.878;2022-12-26T01:07:38;56.64;49.48;66.18;;
74531;Laerm;63010;55.668;37.878;2022-12-26T01:10:05;56.15;47.67;67.30;;
74531;Laerm;63010;55.668;37.878;2022-12-26T01:12:31;57.29;48.19;69.67;;
74531;Laerm;63010;55.668;37.878;2022-12-26T01:14:57;56.65;49.84;69.12;;
74531;Laerm;63010;55.668;37.878;2022-12-26T01:17:24;56.21;47.95;66.22;;
74531;Laerm;63010;55.668;37.878;2022-12-26T01:19:50;54.69;46.51;65.65;;
74531;Laerm;63010;55.668;37.878;2022-12-26T01:22:16;55.97;45.87;66.32;;
74531;Laerm;63010;55.668;37.878;2022-12-26T01:24:41;56.80;48.75;64.84;;
74531;Laerm;63010;55.668;37.878;2022-12-26T01:27:07;57.34;49.78;72.05;;
74531;Laerm;63010;55.668;37.878;2022-12-26T01:29:32;54.45;46.08;65.18;;
74531;Laerm;63010;55.668;37.878;2022-12-26T01:31:58;55.25;49.08;62.29;;
74531;Laerm;63010;55.668;37.878;2022-12-26T01:34:24;53.41;46.45;62.14;;
74531;Laerm;63010;55.668;37.878;2022-12-26T01:36:51;55.29;48.20;61.16;;
74531;Laerm;63010;55.668;37.878;2022-12-26T01:39:17;55.85;48.40;63.63;;
74531;Laerm;63010;55.668;37.878;2022-12-26T01:41:43;54.16;45.43;60.62;;
74531;Laerm;63010;55.668;37.878;2022-12-26T01:47:12;56.02;45.28;62.91;;
74531;Laerm;63010;55.668;37.878;2022-12-26T01:49:45;55.56;48.20;63.41;;
74531;Laerm;63010;55.668;37.878;2022-12-26T01:52:23;57.10;48.59;65.64;;
74531;Laerm;63010;55.668;37.878;2022-12-26T01:54:52;56.26;48.89;64.88;;
74531;Laerm;63010;55.668;37.878;2022-12-26T01:57:28;57.73;52.42;65.64;;
74531;Laerm;63010;55.668;37.878;2022-12-26T01:59:57;56.64;48.09;65.31;;
74531;Laerm;63010;55.668;37.878;2022-12-26T02:02:26;57.76;49.51;69.48;;
74531;Laerm;63010;55.668;37.878;2022-12-26T02:04:53;56.47;47.38;63.52;;
74531;Laerm;63010;55.668;37.878;2022-12-26T02:07:41;56.83;47.98;66.23;;
74531;Laerm;63010;55.668;37.878;2022-12-26T02:10:13;54.74;47.74;60.63;;
74531;Laerm;63010;55.668;37.878;2022-12-26T02:12:41;55.89;48.18;61.44;;
74531;Laerm;63010;55.668;37.878;2022-12-26T02:15:26;57.98;49.95;65.83;;
74531;Laerm;63010;55.668;37.878;2022-12-26T02:17:52;58.21;50.81;65.28;;
74531;Laerm;63010;55.668;37.878;2022-12-26T02:20:26;57.27;51.03;62.58;;
74531;Laerm;63010;55.668;37.878;2022-12-26T02:26:19;58.38;52.40;66.70;;
74531;Laerm;63010;55.668;37.878;2022-12-26T02:34:52;58.38;53.18;66.17;;
74531;Laerm;63010;55.668;37.878;2022-12-26T02:40:15;56.43;50.49;62.96;;
74531;Laerm;63010;55.668;37.878;2022-12-26T02:52:04;57.48;52.04;62.94;;
74531;Laerm;63010;55.668;37.878;2022-12-26T02:57:27;58.18;52.91;62.23;;
74531;Laerm;63010;55.668;37.878;2022-12-26T03:00:16;58.88;53.53;68.73;;
74531;Laerm;63010;55.668;37.878;2022-12-26T03:03:17;58.65;54.69;63.47;;
74531;Laerm;63010;55.668;37.878;2022-12-26T03:06:06;58.72;54.89;64.91;;
74531;Laerm;63010;55.668;37.878;2022-12-26T03:09:02;58.48;54.67;64.04;;
74531;Laerm;63010;55.668;37.878;2022-12-26T03:11:52;59.04;54.50;64.56;;
74531;Laerm;63010;55.668;37.878;2022-12-26T03:15:00;58.67;53.45;63.57;;
74531;Laerm;63010;55.668;37.878;2022-12-26T03:17:34;58.79;53.16;63.83;;
74531;Laerm;63010;55.668;37.878;2022-12-26T03:22:37;59.58;54.79;66.76;;
74531;Laerm;63010;55.668;37.878;2022-12-26T03:25:09;58.37;53.49;65.80;;
74531;Laerm;63010;55.668;37.878;2022-12-26T03:27:54;58.51;53.95;63.60;;
74531;Laerm;63010;55.668;37.878;2022-12-26T03:30:21;58.54;54.25;65.19;;
74531;Laerm;63010;55.668;37.878;2022-12-26T03:33:05;59.41;54.18;66.51;;
74531;Laerm;63010;55.668;37.878;2022-12-26T03:35:51;58.52;54.57;64.81;;
74531;Laerm;63010;55.668;37.878;2022-12-26T03:38:18;58.27;54.82;62.62;;
74531;Laerm;63010;55.668;37.878;2022-12-26T03:41:06;58.87;55.37;64.18;;
74531;Laerm;63010;55.668;37.878;2022-12-26T03:44:03;58.48;54.56;61.98;;
74531;Laerm;63010;55.668;37.878;2022-12-26T03:46:56;57.98;54.07;64.93;;
74531;Laerm;63010;55.668;37.878;2022-12-26T03:49:46;58.37;53.85;63.56;;
74531;Laerm;63010;55.668;37.878;2022-12-26T03:55:36;58.39;55.11;63.69;;
74531;Laerm;63010;55.668;37.878;2022-12-26T03:58:46;58.87;53.76;69.52;;
74531;Laerm;63010;55.668;37.878;2022-12-26T04:01:34;58.36;52.72;67.26;;
74531;Laerm;63010;55.668;37.878;2022-12-26T04:04:22;57.90;52.30;66.40;;
74531;Laerm;63010;55.668;37.878;2022-12-26T04:07:13;56.69;52.68;63.26;;
74531;Laerm;63010;55.668;37.878;2022-12-26T04:10:06;58.16;53.80;65.14;;
74531;Laerm;63010;55.668;37.878;2022-12-26T04:12:57;57.88;53.02;62.90;;
74531;Laerm;63010;55.668;37.878;2022-12-26T04:15:53;57.05;52.74;64.07;;
74531;Laerm;63010;55.668;37.878;2022-12-26T04:18:51;57.55;53.19;64.62;;
74531;Laerm;63010;55.668;37.878;2022-12-26T04:21:50;58.02;52.95;63.34;;
74531;Laerm;63010;55.668;37.878;2022-12-26T04:24:41;55.44;50.61;62.16;;
74531;Laerm;63010;55.668;37.878;2022-12-26T04:27:29;55.89;51.12;63.27;;
74531;Laerm;63010;55.668;37.878;2022-12-26T04:30:15;55.29;50.32;60.82;;
74531;Laerm;63010;55.668;37.878;2022-12-26T04:33:06;55.68;50.39;62.32;;
74531;Laerm;63010;55.668;37.878;2022-12-26T04:35:59;55.50;50.86;61.80;;
74531;Laerm;63010;55.668;37.878;2022-12-26T04:38:53;54.85;49.82;62.05;;
74531;Laerm;63010;55.668;37.878;2022-12-26T04:41:40;54.86;50.62;64.30;;
74531;Laerm;63010;55.668;37.878;2022-12-26T04:44:26;57.07;51.86;73.15;;
74531;Laerm;63010;55.668;37.878;2022-12-26T04:46:54;57.80;53.90;74.35;;
74531;Laerm;63010;55.668;37.878;2022-12-26T04:49:20;57.89;54.16;64.84;;
74531;Laerm;63010;55.668;37.878;2022-12-26T04:52:08;57.53;52.61;63.95;;
74531;Laerm;63010;55.668;37.878;2022-12-26T04:54:34;58.22;52.78;65.85;;
74531;Laerm;63010;55.668;37.878;2022-12-26T04:56:59;58.16;53.15;65.68;;
74531;Laerm;63010;55.668;37.878;2022-12-26T04:59:25;57.87;54.26;62.91;;
74531;Laerm;63010;55.668;37.878;2022-12-26T05:01:50;59.64;55.26;70.63;;
74531;Laerm;63010;55.668;37.878;2022-12-26T05:04:35;58.77;54.37;63.51;;
74531;Laerm;63010;55.668;37.878;2022-12-26T05:07:22;59.03;54.97;66.82;;
74531;Laerm;63010;55.668;37.878;2022-12-26T05:10:18;58.14;53.49;71.60;;
74531;Laerm;63010;55.668;37.878;2022-12-26T05:12:44;57.75;53.53;63.06;;
74531;Laerm;63010;55.668;37.878;2022-12-26T05:15:10;58.08;52.94;65.18;;
74531;Laerm;63010;55.668;37.878;2022-12-26T05:17:36;59.64;54.93;73.75;;
74531;Laerm;63010;55.668;37.878;2022-12-26T05:20:20;57.93;53.67;69.13;;
74531;Laerm;63010;55.668;37.878;2022-12-26T05:22:54;58.61;54.49;64.95;;
74531;Laerm;63010;55.668;37.878;2022-12-26T05:25:40;58.45;53.69;65.83;;
74531;Laerm;63010;55.668;37.878;2022-12-26T05:28:26;58.02;53.76;62.96;;
74531;Laerm;63010;55.668;37.878;2022-12-26T05:31:12;58.05;52.97;62.63;;
74531;Laerm;63010;55.668;37.878;2022-12-26T05:33:38;58.56;53.79;63.79;;
74531;Laerm;63010;55.668;37.878;2022-12-26T05:36:27;59.39;53.65;69.69;;
74531;Laerm;63010;55.668;37.878;2022-12-26T05:38:53;58.90;54.60;67.09;;
74531;Laerm;63010;55.668;37.878;2022-12-26T05:41:21;58.56;53.24;65.82;;
74531;Laerm;63010;55.668;37.878;2022-12-26T05:43:46;58.25;54.11;66.21;;
74531;Laerm;63010;55.668;37.878;2022-12-26T05:46:12;59.18;55.27;63.23;;
74531;Laerm;63010;55.668;37.878;2022-12-26T05:48:37;59.72;55.85;65.01;;
74531;Laerm;63010;55.668;37.878;2022-12-26T05:51:03;60.83;54.35;72.02;;
74531;Laerm;63010;55.668;37.878;2022-12-26T05:53:30;59.98;55.62;67.39;;
74531;Laerm;63010;55.668;37.878;2022-12-26T05:56:09;59.60;54.64;65.25;;
74531;Laerm;63010;55.668;37.878;2022-12-26T05:58:35;59.73;55.88;70.22;;
74531;Laerm;63010;55.668;37.878;2022-12-26T06:01:14;59.61;55.26;65.72;;
74531;Laerm;63010;55.668;37.878;2022-12-26T06:03:41;58.98;53.39;65.35;;
74531;Laerm;63010;55.668;37.878;2022-12-26T06:06:07;59.39;52.47;71.91;;
74531;Laerm;63010;55.668;37.878;2022-12-26T06:08:34;58.99;53.89;69.53;;
74531;Laerm;63010;55.668;37.878;2022-12-26T06:11:03;57.79;53.51;65.08;;
74531;Laerm;63010;55.668;37.878;2022-12-26T06:13:29;57.22;52.90;70.60;;
74531;Laerm;63010;55.668;37.878;2022-12-26T06:15:55;56.64;51.45;64.53;;
74531;Laerm;63010;55.668;37.878;2022-12-26T06:18:20;56.82;52.16;70.49;;
74531;Laerm;63010;55.668;37.878;2022-12-26T06:20:46;56.69;52.01;64.00;;
74531;Laerm;63010;55.668;37.878;2022-12-26T06:23:11;56.04;51.58;66.51;;
74531;Laerm;63010;55.668;37.878;2022-12-26T06:25:37;56.35;51.40;62.86;;
74531;Laerm;63010;55.668;37.878;2022-12-26T06:28:03;55.67;51.67;63.28;;
74531;Laerm;63010;55.668;37.878;2022-12-26T06:30:28;58.88;52.08;70.91;;
74531;Laerm;63010;55.668;37.878;2022-12-26T06:32:54;55.36;51.08;65.18;;
74531;Laerm;63010;55.668;37.878;2022-12-26T06:35:19;58.06;51.59;72.39;;
74531;Laerm;63010;55.668;37.878;2022-12-26T06:37:45;56.52;51.85;62.78;;
74531;Laerm;63010;55.668;37.878;2022-12-26T06:40:10;56.19;51.25;63.69;;
74531;Laerm;63010;55.668;37.878;2022-12-26T06:42:36;57.37;50.92;72.38;;
74531;Laerm;63010;55.668;37.878;2022-12-26T06:45:02;54.82;49.53;60.42;;
74531;Laerm;63010;55.668;37.878;2022-12-26T06:47:29;55.61;51.39;64.50;;
74531;Laerm;63010;55.668;37.878;2022-12-26T06:49:54;58.71;52.30;68.31;;
74531;Laerm;63010;55.668;37.878;2022-12-26T06:52:20;56.81;51.84;65.76;;
74531;Laerm;63010;55.668;37.878;2022-12-26T06:54:45;56.17;51.99;65.21;;
74531;Laerm;63010;55.668;37.878;2022-12-26T06:57:11;55.78;51.60;68.20;;
74531;Laerm;63010;55.668;37.878;2022-12-26T06:59:36;54.35;49.04;63.00;;
74531;Laerm;63010;55.668;37.878;2022-12-26T07:02:02;57.00;51.47;68.91;;
74531;Laerm;63010;55.668;37.878;2022-12-26T07:04:28;57.82;51.02;72.02;;
74531;Laerm;63010;55.668;37.878;2022-12-26T07:06:53;55.23;50.31;63.04;;
74531;Laerm;63010;55.668;37.878;2022-12-26T07:09:19;56.92;50.88;65.86;;
74531;Laerm;63010;55.668;37.878;2022-12-26T07:11:47;56.77;49.69;70.08;;
74531;Laerm;63010;55.668;37.878;2022-12-26T07:14:13;57.64;51.62;69.57;;
74531;Laerm;63010;55.668;37.878;2022-12-26T07:16:40;56.45;50.93;62.06;;
74531;Laerm;63010;55.668;37.878;2022-12-26T07:19:06;56.89;50.87;76.64;;
74531;Laerm;63010;55.668;37.878;2022-12-26T07:21:32;55.28;50.23;62.15;;
74531;Laerm;63010;55.668;37.878;2022-12-26T07:23:58;56.87;50.33;66.88;;
74531;Laerm;63010;55.668;37.878;2022-12-26T07:26:24;55.39;50.77;67.15;;
74531;Laerm;63010;55.668;37.878;2022-12-26T07:28:54;54.39;50.07;64.83;;
74531;Laerm;63010;55.668;37.878;2022-12-26T07:31:20;55.10;50.09;61.11;;
74531;Laerm;63010;55.668;37.878;2022-12-26T07:33:50;55.57;50.70;61.92;;
74531;Laerm;63010;55.668;37.878;2022-12-26T07:36:17;57.51;51.37;72.33;;
74531;Laerm;63010;55.668;37.878;2022-12-26T07:38:43;58.76;49.91;76.17;;
74531;Laerm;63010;55.668;37.878;2022-12-26T07:41:08;55.46;49.68;66.32;;
74531;Laerm;63010;55.668;37.878;2022-12-26T07:43:53;56.19;51.63;64.07;;
74531;Laerm;63010;55.668;37.878;2022-12-26T07:46:19;56.18;51.40;65.51;;
74531;Laerm;63010;55.668;37.878;2022-12-26T07:48:45;55.62;51.87;63.65;;
74531;Laerm;63010;55.668;37.878;2022-12-26T07:51:11;56.41;51.78;63.90;;
74531;Laerm;63010;55.668;37.878;2022-12-26T07:53:37;57.58;53.12;73.56;;
74531;Laerm;63010;55.668;37.878;2022-12-26T07:56:02;56.78;53.18;63.64;;
74531;Laerm;63010;55.668;37.878;2022-12-26T07:58:28;57.45;53.49;67.52;;
74531;Laerm;63010;55.668;37.878;2022-12-26T08:00:53;58.30;52.49;67.76;;
74531;Laerm;63010;55.668;37.878;2022-12-26T08:03:19;57.77;51.60;68.10;;
74531;Laerm;63010;55.668;37.878;2022-12-26T08:05:49;57.76;53.49;62.20;;
74531;Laerm;63010;55.668;37.878;2022-12-26T08:08:14;59.26;54.94;64.14;;
74531;Laerm;63010;55.668;37.878;2022-12-26T08:10:40;59.43;55.83;64.36;;
74531;Laerm;63010;55.668;37.878;2022-12-26T08:13:06;58.66;54.44;62.64;;
74531;Laerm;63010;55.668;37.878;2022-12-26T08:15:32;60.97;53.87;72.49;;
74531;Laerm;63010;55.668;37.878;2022-12-26T08:17:57;59.34;54.56;64.43;;
74531;Laerm;63010;55.668;37.878;2022-12-26T08:20:23;60.53;54.91;72.06;;
74531;Laerm;63010;55.668;37.878;2022-12-26T08:22:48;60.12;54.93;76.18;;
74531;Laerm;63010;55.668;37.878;2022-12-26T08:25:14;58.70;54.31;65.15;;
74531;Laerm;63010;55.668;37.878;2022-12-26T08:27:40;58.69;54.15;65.26;;
74531;Laerm;63010;55.668;37.878;2022-12-26T08:30:06;59.15;54.90;64.09;;
74531;Laerm;63010;55.668;37.878;2022-12-26T08:32:32;59.54;54.85;65.88;;
74531;Laerm;63010;55.668;37.878;2022-12-26T08:34:57;59.12;53.74;68.18;;
74531;Laerm;63010;55.668;37.878;2022-12-26T08:37:23;57.34;51.94;69.48;;
74531;Laerm;63010;55.668;37.878;2022-12-26T08:39:51;57.15;51.68;70.06;;
74531;Laerm;63010;55.668;37.878;2022-12-26T08:42:18;57.96;52.38;72.27;;
74531;Laerm;63010;55.668;37.878;2022-12-26T08:44:44;58.75;54.37;75.23;;
74531;Laerm;63010;55.668;37.878;2022-12-26T08:47:10;58.83;54.43;70.35;;
74531;Laerm;63010;55.668;37.878;2022-12-26T08:49:35;59.34;54.64;75.41;;
74531;Laerm;63010;55.668;37.878;2022-12-26T08:52:01;59.87;54.18;67.63;;
74531;Laerm;63010;55.668;37.878;2022-12-26T08:54:27;58.53;54.06;62.99;;
74531;Laerm;63010;55.668;37.878;2022-12-26T08:56:52;58.47;52.70;65.01;;
74531;Laerm;63010;55.668;37.878;2022-12-26T08:59:18;59.22;54.81;64.54;;
74531;Laerm;63010;55.668;37.878;2022-12-26T09:01:43;59.30;54.84;70.25;;
74531;Laerm;63010;55.668;37.878;2022-12-26T09:04:09;59.76;55.20;68.94;;
74531;Laerm;63010;55.668;37.878;2022-12-26T09:06:37;59.28;55.04;65.23;;
74531;Laerm;63010;55.668;37.878;2022-12-26T09:09:04;59.10;54.03;67.32;;
74531;Laerm;63010;55.668;37.878;2022-12-26T09:11:30;59.95;55.69;65.71;;
74531;Laerm;63010;55.668;37.878;2022-12-26T09:13:58;58.96;54.24;69.19;;
74531;Laerm;63010;55.668;37.878;2022-12-26T09:16:27;58.44;54.09;69.25;;
74531;Laerm;63010;55.668;37.878;2022-12-26T09:18:58;59.87;55.39;69.83;;
74531;Laerm;63010;55.668;37.878;2022-12-26T09:21:26;58.90;54.62;68.89;;
74531;Laerm;63010;55.668;37.878;2022-12-26T09:23:58;58.83;55.06;63.67;;
74531;Laerm;63010;55.668;37.878;2022-12-26T09:26:24;59.31;53.75;72.15;;
74531;Laerm;63010;55.668;37.878;2022-12-26T09:28:50;59.04;54.88;66.78;;
74531;Laerm;63010;55.668;37.878;2022-12-26T09:31:19;57.75;52.93;70.56;;
74531;Laerm;63010;55.668;37.878;2022-12-26T09:33:45;60.40;52.54;76.11;;
74531;Laerm;63010;55.668;37.878;2022-12-26T09:36:19;59.02;51.54;73.10;;
74531;Laerm;63010;55.668;37.878;2022-12-26T09:38:46;58.84;53.52;69.11;;
74531;Laerm;63010;55.668;37.878;2022-12-26T09:47:33;57.08;53.19;72.42;;
74531;Laerm;63010;55.668;37.878;2022-12-26T09:52:51;58.45;52.69;67.45;;
74531;Laerm;63010;55.668;37.878;2022-12-26T09:57:50;60.12;55.38;70.99;;
74531;Laerm;63010;55.668;37.878;2022-12-26T10:00:24;59.44;55.56;65.91;;
74531;Laerm;63010;55.668;37.878;2022-12-26T10:02:53;58.46;54.39;64.40;;
74531;Laerm;63010;55.668;37.878;2022-12-26T10:05:21;59.03;55.21;66.31;;
74531;Laerm;63010;55.668;37.878;2022-12-26T10:07:57;59.25;54.74;68.52;;
74531;Laerm;63010;55.668;37.878;2022-12-26T10:13:03;59.47;54.80;65.25;;
74531;Laerm;63010;55.668;37.878;2022-12-26T10:15:58;60.11;54.76;81.14;;
74531;Laerm;63010;55.668;37.878;2022-12-26T10:24:17;60.73;56.40;64.81;;
74531;Laerm;63010;55.668;37.878;2022-12-26T10:26:46;60.17;55.84;65.93;;
74531;Laerm;63010;55.668;37.878;2022-12-26T10:29:34;59.40;54.73;71.90;;
74531;Laerm;63010;55.668;37.878;2022-12-26T10:32:02;59.20;54.06;73.52;;
74531;Laerm;63010;55.668;37.878;2022-12-26T10:34:44;59.27;53.33;80.25;;
74531;Laerm;63010;55.668;37.878;2022-12-26T10:42:38;59.19;54.06;69.22;;
74531;Laerm;63010;55.668;37.878;2022-12-26T10:47:46;57.45;52.44;67.58;;
74531;Laerm;63010;55.668;37.878;2022-12-26T10:50:27;56.81;51.99;73.60;;
74531;Laerm;63010;55.668;37.878;2022-12-26T10:52:54;56.53;51.17;65.57;;
74531;Laerm;63010;55.668;37.878;2022-12-26T10:55:28;56.06;52.08;68.24;;
74531;Laerm;63010;55.668;37.878;2022-12-26T10:57:54;56.59;51.03;66.81;;
74531;Laerm;63010;55.668;37.878;2022-12-26T11:00:24;55.90;51.35;63.26;;
74531;Laerm;63010;55.668;37.878;2022-12-26T11:03:08;56.76;50.22;70.86;;
74531;Laerm;63010;55.668;37.878;2022-12-26T11:05:40;56.90;51.98;72.44;;
74531;Laerm;63010;55.668;37.878;2022-12-26T11:10:32;56.28;51.93;70.69;;
74531;Laerm;63010;55.668;37.878;2022-12-26T11:13:05;65.04;51.28;81.27;;
74531;Laerm;63010;55.668;37.878;2022-12-26T11:15:36;58.92;51.02;74.40;;
74531;Laerm;63010;55.668;37.878;2022-12-26T11:20:40;58.07;50.40;73.40;;
74531;Laerm;63010;55.668;37.878;2022-12-26T11:23:28;56.54;50.66;71.15;;
74531;Laerm;63010;55.668;37.878;2022-12-26T11:26:00;57.10;50.46;67.46;;
74531;Laerm;63010;55.668;37.878;2022-12-26T11:28:35;57.10;52.16;64.85;;
74531;Laerm;63010;55.668;37.878;2022-12-26T11:31:06;56.48;52.60;61.94;;
74531;Laerm;63010;55.668;37.878;2022-12-26T11:33:35;56.57;51.98;63.73;;
74531;Laerm;63010;55.668;37.878;2022-12-26T11:36:10;56.48;53.08;60.27;;
74531;Laerm;63010;55.668;37.878;2022-12-26T11:41:30;57.82;52.33;76.93;;
74531;Laerm;63010;55.668;37.878;2022-12-26T11:44:19;60.16;54.50;71.04;;
74531;Laerm;63010;55.668;37.878;2022-12-26T11:52:00;59.93;54.40;68.12;;
74531;Laerm;63010;55.668;37.878;2022-12-26T11:57:19;60.15;55.66;75.21;;
74531;Laerm;63010;55.668;37.878;2022-12-26T11:59:47;57.55;53.45;65.27;;
74531;Laerm;63010;55.668;37.878;2022-12-26T12:02:26;58.58;54.20;65.86;;
74531;Laerm;63010;55.668;37.878;2022-12-26T12:04:55;58.21;54.68;66.97;;
74531;Laerm;63010;55.668;37.878;2022-12-26T12:10:43;59.21;53.78;68.70;;
74531;Laerm;63010;55.668;37.878;2022-12-26T12:21:37;58.15;54.25;67.22;;
74531;Laerm;63010;55.668;37.878;2022-12-26T12:27:15;58.34;53.83;63.51;;
74531;Laerm;63010;55.668;37.878;2022-12-26T12:45:57;59.52;53.60;74.73;;
74531;Laerm;63010;55.668;37.878;2022-12-26T12:56:59;59.33;54.53;65.65;;
74531;Laerm;63010;55.668;37.878;2022-12-26T12:59:39;58.68;53.85;65.89;;
74531;Laerm;63010;55.668;37.878;2022-12-26T13:02:22;58.03;53.91;63.01;;
74531;Laerm;63010;55.668;37.878;2022-12-26T13:05:01;58.66;54.50;65.30;;
74531;Laerm;63010;55.668;37.878;2022-12-26T13:07:39;59.02;55.17;74.10;;
74531;Laerm;63010;55.668;37.878;2022-12-26T13:10:25;58.41;54.17;64.04;;
74531;Laerm;63010;55.668;37.878;2022-12-26T13:12:52;58.75;53.84;64.13;;
74531;Laerm;63010;55.668;37.878;2022-12-26T13:15:39;59.70;53.42;79.49;;
74531;Laerm;63010;55.668;37.878;2022-12-26T13:18:13;58.91;54.71;70.64;;
74531;Laerm;63010;55.668;37.878;2022-12-26T13:20:45;58.62;54.10;70.12;;
74531;Laerm;63010;55.668;37.878;2022-12-26T13:26:08;58.78;53.82;63.66;;
74531;Laerm;63010;55.668;37.878;2022-12-26T13:28:44;57.55;52.93;62.42;;
74531;Laerm;63010;55.668;37.878;2022-12-26T13:31:13;58.61;53.53;67.24;;
74531;Laerm;63010;55.668;37.878;2022-12-26T13:33:41;58.92;54.66;65.48;;
74531;Laerm;63010;55.668;37.878;2022-12-26T13:36:07;59.68;54.82;73.19;;
74531;Laerm;63010;55.668;37.878;2022-12-26T13:41:20;59.08;55.32;63.32;;
74531;Laerm;63010;55.668;37.878;2022-12-26T13:49:26;59.41;54.48;65.83;;
74531;Laerm;63010;55.668;37.878;2022-12-26T14:08:30;59.99;54.83;75.53;;
74531;Laerm;63010;55.668;37.878;2022-12-26T14:16:33;57.43;54.27;61.54;;
74531;Laerm;63010;55.668;37.878;2022-12-26T14:24:34;57.86;52.52;67.06;;
74531;Laerm;63010;55.668;37.878;2022-12-26T14:27:18;58.27;52.92;68.39;;
74531;Laerm;63010;55.668;37.878;2022-12-26T14:33:17;58.59;53.40;71.52;;
74531;Laerm;63010;55.668;37.878;2022-12-26T14:38:49;57.93;53.70;66.61;;
74531;Laerm;63010;55.668;37.878;2022-12-26T14:41:17;56.87;53.93;61.15;;
74531;Laerm;63010;55.668;37.878;2022-12-26T14:46:59;58.41;53.91;72.58;;
74531;Laerm;63010;55.668;37.878;2022-12-26T14:54:48;58.62;54.00;69.45;;
74531;Laerm;63010;55.668;37.878;2022-12-26T15:02:43;58.50;54.59;64.61;;
74531;Laerm;63010;55.668;37.878;2022-12-26T15:05:24;58.38;54.18;63.98;;
74531;Laerm;63010;55.668;37.878;2022-12-26T15:28:18;59.55;54.21;71.82;;
74531;Laerm;63010;55.668;37.878;2022-12-26T15:48:28;57.92;53.06;67.52;;
74531;Laerm;63010;55.668;37.878;2022-12-26T15:59:39;58.44;54.33;69.54;;
74531;Laerm;63010;55.668;37.878;2022-12-26T16:02:30;58.63;54.76;73.86;;
74531;Laerm;63010;55.668;37.878;2022-12-26T16:13:17;59.03;54.25;67.86;;
74531;Laerm;63010;55.668;37.878;2022-12-26T16:15:54;58.54;54.22;71.85;;
74531;Laerm;63010;55.668;37.878;2022-12-26T16:18:26;58.19;53.46;68.54;;
74531;Laerm;63010;55.668;37.878;2022-12-26T16:20:55;58.89;53.02;65.40;;
74531;Laerm;63010;55.668;37.878;2022-12-26T16:23:42;58.08;54.41;67.55;;
74531;Laerm;63010;55.668;37.878;2022-12-26T16:26:17;59.81;54.95;73.36;;
74531;Laerm;63010;55.668;37.878;2022-12-26T16:28:45;58.91;55.21;64.73;;
74531;Laerm;63010;55.668;37.878;2022-12-26T16:31:24;60.11;54.47;70.24;;
74531;Laerm;63010;55.668;37.878;2022-12-26T16:33:51;59.74;54.29;79.82;;
74531;Laerm;63010;55.668;37.878;2022-12-26T16:36:20;58.81;54.53;69.87;;
74531;Laerm;63010;55.668;37.878;2022-12-26T16:38:46;59.40;55.93;67.42;;
74531;Laerm;63010;55.668;37.878;2022-12-26T16:41:28;58.58;54.46;64.01;;
74531;Laerm;63010;55.668;37.878;2022-12-26T16:43:55;59.27;55.14;69.01;;
74531;Laerm;63010;55.668;37.878;2022-12-26T16:46:27;58.75;54.37;66.79;;
74531;Laerm;63010;55.668;37.878;2022-12-26T16:48:59;58.79;54.27;65.81;;
74531;Laerm;63010;55.668;37.878;2022-12-26T16:53:53;58.60;54.62;63.49;;
74531;Laerm;63010;55.668;37.878;2022-12-26T16:56:29;58.03;52.96;64.15;;
74531;Laerm;63010;55.668;37.878;2022-12-26T16:59:03;58.79;52.89;65.13;;
74531;Laerm;63010;55.668;37.878;2022-12-26T17:01:31;58.63;53.96;66.10;;
74531;Laerm;63010;55.668;37.878;2022-12-26T17:04:01;58.73;52.78;64.89;;
74531;Laerm;63010;55.668;37.878;2022-12-26T17:06:31;59.22;54.06;66.90;;
74531;Laerm;63010;55.668;37.878;2022-12-26T17:09:04;58.82;54.61;64.20;;
74531;Laerm;63010;55.668;37.878;2022-12-26T17:11:34;59.03;53.45;70.19;;
74531;Laerm;63010;55.668;37.878;2022-12-26T17:14:02;58.97;54.82;66.74;;
74531;Laerm;63010;55.668;37.878;2022-12-26T17:16:29;58.44;54.36;63.97;;
74531;Laerm;63010;55.668;37.878;2022-12-26T17:21:36;59.37;54.49;66.62;;
74531;Laerm;63010;55.668;37.878;2022-12-26T17:24:10;59.08;54.01;65.02;;
74531;Laerm;63010;55.668;37.878;2022-12-26T17:26:38;58.04;53.58;63.58;;
74531;Laerm;63010;55.668;37.878;2022-12-26T17:29:04;58.51;54.03;67.02;;
74531;Laerm;63010;55.668;37.878;2022-12-26T17:31:38;58.69;54.08;66.63;;
74531;Laerm;63010;55.668;37.878;2022-12-26T17:34:14;58.61;53.43;64.16;;
74531;Laerm;63010;55.668;37.878;2022-12-26T17:36:42;59.46;53.97;70.59;;
74531;Laerm;63010;55.668;37.878;2022-12-26T17:39:20;58.93;54.89;65.72;;
74531;Laerm;63010;55.668;37.878;2022-12-26T17:41:53;58.62;52.81;66.29;;
74531;Laerm;63010;55.668;37.878;2022-12-26T17:44:43;58.10;53.68;62.95;;
74531;Laerm;63010;55.668;37.878;2022-12-26T17:47:21;58.98;55.00;69.04;;
74531;Laerm;63010;55.668;37.878;2022-12-26T17:49:48;58.75;53.90;68.40;;
74531;Laerm;63010;55.668;37.878;2022-12-26T17:52:16;58.13;52.83;62.64;;
74531;Laerm;63010;55.668;37.878;2022-12-26T17:54:43;60.16;54.19;77.78;;